Time;durP1;ratioP1;P1;durP2;ratioP2;P2;SDS_P1;SDS_P2;PMS_P1;PMS_P2;Temp;Humidity;BMP_temperature;BMP_pressure;BME280_temperature;BME280_humidity;BME280_pressure;Samples;Min_cycle;Max_cycle;Signal;HPM_P1;HPM_P2
2023/07/10 00:00:43;;;;;;;;;;;;;;;;;;5072240;28;19924;-66
2023/07/10 00:03:10;;;;;;;;;;;;;;;;;;5072222;28;19970;-66
2023/07/10 00:05:37;;;;;;;;;;;;;;;;;;5072300;28;20019;-66
2023/07/10 00:08:04;;;;;;;;;;;;;;;;;;5074259;28;19932;-65
2023/07/10 00:10:31;;;;;;;;;;;;;;;;;;5080816;28;19959;-66
2023/07/10 00:12:58;;;;;;;;;;;;;;;;;;5078546;28;19924;-66
2023/07/10 00:15:25;;;;;;;;;;;;;;;;;;5072390;28;20338;-66
2023/07/10 00:17:52;;;;;;;;;;;;;;;;;;5073371;28;19954;-66
2023/07/10 00:20:19;;;;;;;;;;;;;;;;;;5072207;28;19924;-66
2023/07/10 00:22:45;;;;;;;;;;;;;;;;;;5072213;28;19928;-66
2023/07/10 00:25:15;;;;;;;;;;;;;;;;;;5070495;28;20012;-66
2023/07/10 00:27:42;;;;;;;;;;;;;;;;;;5069396;28;19931;-66
2023/07/10 00:30:09;;;;;;;;;;;;;;;;;;5071955;28;19924;-65
2023/07/10 00:32:36;;;;;;;;;;;;;;;;;;5071215;28;20019;-66
2023/07/10 00:35:03;;;;;;;;;;;;;;;;;;5070265;28;19925;-66
2023/07/10 00:37:30;;;;;;;;;;;;;;;;;;5071891;28;19960;-66
2023/07/10 00:39:57;;;;;;;;;;;;;;;;;;5069991;28;19972;-65
2023/07/10 00:42:24;;;;;;;;;;;;;;;;;;5070342;28;19987;-66
2023/07/10 00:44:51;;;;;;;;;;;;;;;;;;5073253;28;19925;-66
2023/07/10 00:47:18;;;;;;;;;;;;;;;;;;5072572;28;20426;-65
2023/07/10 00:49:45;;;;;;;;;;;;;;;;;;5070224;28;20462;-66
2023/07/10 00:52:12;;;;;;;;;;;;;;;;;;5071760;28;19933;-66
2023/07/10 00:54:40;;;;;;;;;;;;;;;;;;5073658;28;19924;-66
2023/07/10 00:57:08;;;;;;;;;;;;;;;;;;5073113;28;19939;-66
2023/07/10 00:59:35;;;;;;;;;;;;;;;;;;5072677;28;19935;-66
2023/07/10 01:02:02;;;;;;;;;;;;;;;;;;5074242;28;19931;-66
2023/07/10 01:04:29;;;;;;;;;;;;;;;;;;5071359;28;19932;-67
2023/07/10 01:06:57;;;;;;;;;;;;;;;;;;5070057;28;19924;-67
2023/07/10 01:09:24;;;;;;;;;;;;;;;;;;5072877;28;20011;-67
2023/07/10 01:11:51;;;;;;;;;;;;;;;;;;5072947;28;19924;-67
2023/07/10 01:14:18;;;;;;;;;;;;;;;;;;5071484;28;19928;-67
2023/07/10 01:16:46;;;;;;;;;;;;;;;;;;5071139;28;19925;-66
2023/07/10 01:19:13;;;;;;;;;;;;;;;;;;5062866;28;19982;-66
2023/07/10 01:21:40;;;;;;;;;;;;;;;;;;5070699;28;19971;-67
2023/07/10 01:24:08;;;;;;;;;;;;;;;;;;5070486;28;19931;-67
2023/07/10 01:26:35;;;;;;;;;;;;;;;;;;5071308;28;20387;-66
2023/07/10 01:29:02;;;;;;;;;;;;;;;;;;5065926;28;20360;-67
2023/07/10 01:31:29;;;;;;;;;;;;;;;;;;5069318;28;19925;-68
2023/07/10 01:33:59;;;;;;;;;;;;;;;;;;5071917;28;19972;-68
2023/07/10 01:36:26;;;;;;;;;;;;;;;;;;5067570;28;19935;-66
2023/07/10 01:38:53;;;;;;;;;;;;;;;;;;5064255;28;20371;-67
2023/07/10 01:41:20;;;;;;;;;;;;;;;;;;5068169;28;19925;-66
2023/07/10 01:43:47;;;;;;;;;;;;;;;;;;5071207;28;19932;-67
2023/07/10 01:46:14;;;;;;;;;;;;;;;;;;5069325;28;20407;-66
2023/07/10 01:48:41;;;;;;;;;;;;;;;;;;5069988;28;20010;-67
2023/07/10 01:51:08;;;;;;;;;;;;;;;;;;5070073;28;19924;-67
2023/07/10 01:53:35;;;;;;;;;;;;;;;;;;5073349;28;20119;-67
2023/07/10 01:56:02;;;;;;;;;;;;;;;;;;5070701;28;19978;-67
2023/07/10 01:58:29;;;;;;;;;;;;;;;;;;5059294;28;19928;-67
2023/07/10 02:00:56;;;;;;;;;;;;;;;;;;5069682;28;19928;-67
2023/07/10 02:03:23;;;;;;;;;;;;;;;;;;5068285;28;19924;-67
2023/07/10 02:05:50;;;;;;;;;;;;;;;;;;5067653;28;19929;-67
2023/07/10 02:08:17;;;;;;;;;;;;;;;;;;5068449;28;19938;-67
2023/07/10 02:10:45;;;;;;;;;;;;;;;;;;5075087;28;19924;-67
2023/07/10 02:13:12;;;;;;;;;;;;;;;;;;5071182;28;20360;-66
2023/07/10 02:15:39;;;;;;;;;;;;;;;;;;5070550;28;20339;-66
2023/07/10 02:18:06;;;;;;;;;;;;;;;;;;5069362;28;19956;-65
2023/07/10 02:20:33;;;;;;;;;;;;;;;;;;5071333;28;20398;-65
2023/07/10 02:23:00;;;;;;;;;;;;;;;;;;5070631;28;19960;-65
2023/07/10 02:25:27;;;;;;;;;;;;;;;;;;5070945;28;19925;-66
2023/07/10 02:27:53;;;;;;;;;;;;;;;;;;5074461;28;19935;-65
2023/07/10 02:30:22;;;;;;;;;;;;;;;;;;5070685;28;19931;-66
2023/07/10 02:32:49;;;;;;;;;;;;;;;;;;5068546;28;19981;-66
2023/07/10 02:35:16;;;;;;;;;;;;;;;;;;5071386;28;20411;-66
2023/07/10 02:37:44;;;;;;;;;;;;;;;;;;5068296;28;19935;-66
2023/07/10 02:40:11;;;;;;;;;;;;;;;;;;5071188;28;19931;-66
2023/07/10 02:42:41;;;;;;;;;;;;;;;;;;5070829;28;19991;-66
2023/07/10 02:45:08;;;;;;;;;;;;;;;;;;5082769;28;19928;-66
2023/07/10 02:47:34;;;;;;;;;;;;;;;;;;5066754;28;19925;-66
2023/07/10 02:50:01;;;;;;;;;;;;;;;;;;5070314;28;19931;-65
2023/07/10 02:52:28;;;;;;;;;;;;;;;;;;5052067;28;19983;-65
2023/07/10 02:54:56;;;;;;;;;;;;;;;;;;5064579;28;19925;-65
2023/07/10 02:57:23;;;;;;;;;;;;;;;;;;5070319;28;19933;-65
2023/07/10 02:59:50;;;;;;;;;;;;;;;;;;5072151;28;19925;-66
2023/07/10 03:02:17;;;;;;;;;;;;;;;;;;5079814;28;19929;-66
2023/07/10 03:04:44;;;;;;;;;;;;;;;;;;5070890;28;19931;-66
2023/07/10 03:07:11;;;;;;;;;;;;;;;;;;5068764;28;19925;-65
2023/07/10 03:09:38;;;;;;;;;;;;;;;;;;5069541;28;19964;-65
2023/07/10 03:12:05;;;;;;;;;;;;;;;;;;5070489;28;19978;-66
2023/07/10 03:14:32;;;;;;;;;;;;;;;;;;5072652;28;19935;-66
2023/07/10 03:17:00;;;;;;;;;;;;;;;;;;5059438;28;19924;-66
2023/07/10 03:19:27;;;;;;;;;;;;;;;;;;5073994;28;19924;-65
2023/07/10 03:21:54;;;;;;;;;;;;;;;;;;5072572;28;19925;-65
2023/07/10 03:24:21;;;;;;;;;;;;;;;;;;5074165;28;19939;-66
2023/07/10 03:26:48;;;;;;;;;;;;;;;;;;5073460;28;19931;-65
2023/07/10 03:29:15;;;;;;;;;;;;;;;;;;5069787;28;19929;-65
2023/07/10 03:31:42;;;;;;;;;;;;;;;;;;5072040;28;19924;-65
2023/07/10 03:34:09;;;;;;;;;;;;;;;;;;5075284;28;19955;-65
2023/07/10 03:36:36;;;;;;;;;;;;;;;;;;5072259;28;19924;-65
2023/07/10 03:39:03;;;;;;;;;;;;;;;;;;5070481;28;19939;-65
2023/07/10 03:41:30;;;;;;;;;;;;;;;;;;5067109;28;19925;-65
2023/07/10 03:43:57;;;;;;;;;;;;;;;;;;5072073;28;20011;-66
2023/07/10 03:46:24;;;;;;;;;;;;;;;;;;5071632;28;19978;-65
2023/07/10 03:48:51;;;;;;;;;;;;;;;;;;5071938;28;20016;-66
2023/07/10 03:51:18;;;;;;;;;;;;;;;;;;5079173;28;20415;-65
2023/07/10 03:53:45;;;;;;;;;;;;;;;;;;5077287;28;20362;-65
2023/07/10 03:56:12;;;;;;;;;;;;;;;;;;5074271;28;20028;-65
2023/07/10 03:58:39;;;;;;;;;;;;;;;;;;5073063;28;20019;-65
2023/07/10 04:01:06;;;;;;;;;;;;;;;;;;5074560;28;20015;-65
2023/07/10 04:03:33;;;;;;;;;;;;;;;;;;5057626;28;20015;-66
2023/07/10 04:06:00;;;;;;;;;;;;;;;;;;5073822;28;20023;-67
2023/07/10 04:08:28;;;;;;;;;;;;;;;;;;5072573;28;20430;-67
2023/07/10 04:10:55;;;;;;;;;;;;;;;;;;5074015;28;20307;-68
2023/07/10 04:13:23;;;;;;;;;;;;;;;;;;5073828;28;19971;-67
2023/07/10 04:15:50;;;;;;;;;;;;;;;;;;5073684;28;20351;-68
2023/07/10 04:18:17;;;;;;;;;;;;;;;;;;5070852;28;19924;-68
2023/07/10 04:20:44;;;;;;;;;;;;;;;;;;5071248;28;20356;-67
2023/07/10 04:23:11;;;;;;;;;;;;;;;;;;5072519;28;20012;-67
2023/07/10 04:25:38;;;;;;;;;;;;;;;;;;5073002;28;20021;-67
2023/07/10 04:28:05;;;;;;;;;;;;;;;;;;5071994;28;20015;-67
2023/07/10 04:30:32;;;;;;;;;;;;;;;;;;5071923;28;19959;-64
2023/07/10 04:32:59;;;;;;;;;;;;;;;;;;5068842;28;20430;-64
2023/07/10 04:35:26;;;;;;;;;;;;;;;;;;5066750;28;20363;-67
2023/07/10 04:37:53;;;;;;;;;;;;;;;;;;5071713;28;20352;-67
2023/07/10 04:40:20;;;;;;;;;;;;;;;;;;5072573;28;20369;-67
2023/07/10 04:42:49;;;;;;;;;;;;;;;;;;5071161;28;19944;-68
2023/07/10 04:45:16;;;;;;;;;;;;;;;;;;5071569;28;19924;-65
2023/07/10 04:47:43;;;;;;;;;;;;;;;;;;5069946;28;19975;-67
2023/07/10 04:50:10;;;;;;;;;;;;;;;;;;5070149;28;19924;-66
2023/07/10 04:52:37;;;;;;;;;;;;;;;;;;5072396;28;20032;-67
2023/07/10 04:55:04;;;;;;;;;;;;;;;;;;5070645;28;20435;-66
2023/07/10 04:57:31;;;;;;;;;;;;;;;;;;5069465;28;20355;-66
2023/07/10 04:59:58;;;;;;;;;;;;;;;;;;5069452;28;19975;-67
2023/07/10 05:02:25;;;;;;;;;;;;;;;;;;5067831;28;20015;-67
2023/07/10 05:04:52;;;;;;;;;;;;;;;;;;5069310;28;19975;-66
2023/07/10 05:07:19;;;;;;;;;;;;;;;;;;5069922;28;19924;-67
2023/07/10 05:09:46;;;;;;;;;;;;;;;;;;5069277;28;20370;-66
2023/07/10 05:12:13;;;;;;;;;;;;;;;;;;5073245;28;20345;-69
2023/07/10 05:14:40;;;;;;;;;;;;;;;;;;5068249;28;20393;-67
2023/07/10 05:17:07;;;;;;;;;;;;;;;;;;5064356;28;20310;-67
2023/07/10 05:19:34;;;;;;;;;;;;;;;;;;5070296;28;20410;-66
2023/07/10 05:22:01;;;;;;;;;;;;;;;;;;5069701;28;19924;-66
2023/07/10 05:24:28;;;;;;;;;;;;;;;;;;5071702;28;19925;-66
2023/07/10 05:26:55;;;;;;;;;;;;;;;;;;5070709;28;19925;-66
2023/07/10 05:29:22;;;;;;;;;;;;;;;;;;5069578;28;20015;-67
2023/07/10 05:31:49;;;;;;;;;;;;;;;;;;5069904;28;20321;-64
2023/07/10 05:34:18;;;;;;;;;;;;;;;;;;5069732;28;20011;-66
2023/07/10 05:36:45;;;;;;;;;;;;;;;;;;5068533;28;19924;-67
2023/07/10 05:39:12;;;;;;;;;;;;;;;;;;5068107;28;20414;-66
2023/07/10 05:41:39;;;;;;;;;;;;;;;;;;5072585;28;20450;-67
2023/07/10 05:44:07;;;;;;;;;;;;;;;;;;5069695;28;19924;-66
2023/07/10 05:46:34;;;;;;;;;;;;;;;;;;5070269;28;19932;-66
2023/07/10 05:49:01;;;;;;;;;;;;;;;;;;5058451;28;19928;-66
2023/07/10 05:51:28;;;;;;;;;;;;;;;;;;5070215;28;20027;-67
2023/07/10 05:53:56;;;;;;;;;;;;;;;;;;5071127;28;20015;-66
2023/07/10 05:56:23;;;;;;;;;;;;;;;;;;5072325;28;19929;-65
2023/07/10 05:58:50;;;;;;;;;;;;;;;;;;5068581;28;19931;-66
2023/07/10 06:01:17;;;;;;;;;;;;;;;;;;5069361;28;19940;-66
2023/07/10 06:03:44;;;;;;;;;;;;;;;;;;5071265;28;20007;-66
2023/07/10 06:06:11;;;;;;;;;;;;;;;;;;5069725;28;19924;-66
2023/07/10 06:08:38;;;;;;;;;;;;;;;;;;5070094;28;19932;-66
2023/07/10 06:11:05;;;;;;;;;;;;;;;;;;5069310;28;19939;-67
2023/07/10 06:13:32;;;;;;;;;;;;;;;;;;5057009;28;20520;-67
2023/07/10 06:15:59;;;;;;;;;;;;;;;;;;5065714;28;20027;-68
2023/07/10 06:18:26;;;;;;;;;;;;;;;;;;5069585;28;20015;-67
2023/07/10 06:20:53;;;;;;;;;;;;;;;;;;5068454;28;20450;-67
2023/07/10 06:23:20;;;;;;;;;;;;;;;;;;5066420;28;20352;-67
2023/07/10 06:25:47;;;;;;;;;;;;;;;;;;5066915;28;20294;-67
2023/07/10 06:28:14;;;;;;;;;;;;;;;;;;5069693;28;20406;-67
2023/07/10 06:30:41;;;;;;;;;;;;;;;;;;5070178;28;20371;-67
2023/07/10 06:33:08;;;;;;;;;;;;;;;;;;5069522;28;20303;-67
2023/07/10 06:35:35;;;;;;;;;;;;;;;;;;5060737;28;19969;-67
2023/07/10 06:38:02;;;;;;;;;;;;;;;;;;5071026;28;20011;-67
2023/07/10 06:40:29;;;;;;;;;;;;;;;;;;5068301;28;19924;-67
2023/07/10 06:42:56;;;;;;;;;;;;;;;;;;5069352;28;20347;-68
2023/07/10 06:45:23;;;;;;;;;;;;;;;;;;5069105;28;20332;-67
2023/07/10 06:47:50;;;;;;;;;;;;;;;;;;5068399;28;19931;-67
2023/07/10 06:50:17;;;;;;;;;;;;;;;;;;5068161;28;20011;-68
2023/07/10 06:52:47;;;;;;;;;;;;;;;;;;5068647;28;21346;-70
2023/07/10 06:55:14;;;;;;;;;;;;;;;;;;5070456;28;20026;-67
2023/07/10 06:57:41;;;;;;;;;;;;;;;;;;5075801;28;20051;-69
2023/07/10 07:00:08;;;;;;;;;;;;;;;;;;5071622;28;20020;-68
2023/07/10 07:02:35;;;;;;;;;;;;;;;;;;5069921;28;20436;-67
2023/07/10 07:05:02;;;;;;;;;;;;;;;;;;5069074;28;20023;-67
2023/07/10 07:07:29;;;;;;;;;;;;;;;;;;5071179;28;19942;-68
2023/07/10 07:10:00;;;;;;;;;;;;;;;;;;5070273;28;19967;-69
2023/07/10 07:12:27;;;;;;;;;;;;;;;;;;5060680;28;20375;-69
2023/07/10 07:14:54;;;;;;;;;;;;;;;;;;5071609;28;20292;-70
2023/07/10 07:17:21;;;;;;;;;;;;;;;;;;5065793;28;20019;-69
2023/07/10 07:19:48;;;;;;;;;;;;;;;;;;5062418;28;19991;-70
2023/07/10 07:22:15;;;;;;;;;;;;;;;;;;5067777;28;19924;-68
2023/07/10 07:24:42;;;;;;;;;;;;;;;;;;5067302;28;20020;-69
2023/07/10 07:27:09;;;;;;;;;;;;;;;;;;5064414;28;20446;-69
2023/07/10 07:29:36;;;;;;;;;;;;;;;;;;5069383;28;20388;-69
2023/07/10 07:32:03;;;;;;;;;;;;;;;;;;5071979;28;20046;-69
2023/07/10 07:34:30;;;;;;;;;;;;;;;;;;5066408;28;20480;-69
2023/07/10 07:36:57;;;;;;;;;;;;;;;;;;5069049;28;19925;-70
2023/07/10 07:39:28;;;;;;;;;;;;;;;;;;5069732;28;20407;-69
2023/07/10 07:41:55;;;;;;;;;;;;;;;;;;5069307;28;19955;-70
2023/07/10 07:44:22;;;;;;;;;;;;;;;;;;5069949;28;20338;-69
2023/07/10 07:46:49;;;;;;;;;;;;;;;;;;5068732;28;19967;-70
2023/07/10 07:49:16;;;;;;;;;;;;;;;;;;5071495;28;19928;-70
2023/07/10 07:51:43;;;;;;;;;;;;;;;;;;5070685;28;19971;-70
2023/07/10 07:54:10;;;;;;;;;;;;;;;;;;5072351;28;20321;-70
2023/07/10 07:56:37;;;;;;;;;;;;;;;;;;5072738;28;19978;-70
2023/07/10 07:59:04;;;;;;;;;;;;;;;;;;5067602;28;20039;-70
2023/07/10 08:01:31;;;;;;;;;;;;;;;;;;5064089;28;19924;-69
2023/07/10 08:03:58;;;;;;;;;;;;;;;;;;5070727;28;20015;-69
2023/07/10 08:06:25;;;;;;;;;;;;;;;;;;5072502;28;20021;-70
2023/07/10 08:08:52;;;;;;;;;;;;;;;;;;5072699;28;19924;-70
2023/07/10 08:11:20;;;;;;;;;;;;;;;;;;5072103;28;19931;-71
2023/07/10 08:13:47;;;;;;;;;;;;;;;;;;5069334;28;19925;-70
2023/07/10 08:16:14;;;;;;;;;;;;;;;;;;5071791;28;19959;-70
2023/07/10 08:18:46;;;;;;;;;;;;;;;;;;5071115;28;19924;-71
2023/07/10 08:21:13;;;;;;;;;;;;;;;;;;5066344;28;19929;-71
2023/07/10 08:23:40;;;;;;;;;;;;;;;;;;5071382;28;19924;-72
2023/07/10 08:26:07;;;;;;;;;;;;;;;;;;5068400;28;20019;-69
2023/07/10 08:28:34;;;;;;;;;;;;;;;;;;5067431;28;20023;-69
2023/07/10 08:31:01;;;;;;;;;;;;;;;;;;5063442;28;19932;-68
2023/07/10 08:33:28;;;;;;;;;;;;;;;;;;5068068;28;20038;-71
2023/07/10 08:35:56;;;;;;;;;;;;;;;;;;5069615;28;20027;-69
2023/07/10 08:38:23;;;;;;;;;;;;;;;;;;5068840;28;19931;-69
2023/07/10 08:40:50;;;;;;;;;;;;;;;;;;5068200;28;19963;-69
2023/07/10 08:43:17;;;;;;;;;;;;;;;;;;5070584;28;19924;-69
2023/07/10 08:45:44;;;;;;;;;;;;;;;;;;5069681;28;19932;-70
2023/07/10 08:48:11;;;;;;;;;;;;;;;;;;5071766;28;19924;-69
2023/07/10 08:50:38;;;;;;;;;;;;;;;;;;5068866;28;19924;-69
2023/07/10 08:53:05;;;;;;;;;;;;;;;;;;5067962;28;20015;-70
2023/07/10 08:55:32;;;;;;;;;;;;;;;;;;5068546;28;20015;-69
2023/07/10 08:57:59;;;;;;;;;;;;;;;;;;5072651;28;20466;-70
2023/07/10 09:00:26;;;;;;;;;;;;;;;;;;5071876;28;19968;-70
2023/07/10 09:02:53;;;;;;;;;;;;;;;;;;5070073;28;19979;-69
2023/07/10 09:05:20;;;;;;;;;;;;;;;;;;5071199;28;20058;-69
2023/07/10 09:07:47;;;;;;;;;;;;;;;;;;5065140;28;19978;-71
2023/07/10 09:10:14;;;;;;;;;;;;;;;;;;5070939;28;20007;-71
2023/07/10 09:12:41;;;;;;;;;;;;;;;;;;5068382;28;19924;-69
2023/07/10 09:15:08;;;;;;;;;;;;;;;;;;5077688;28;19932;-69
2023/07/10 09:17:35;;;;;;;;;;;;;;;;;;5069943;28;20023;-65
2023/07/10 09:20:03;;;;;;;;;;;;;;;;;;5069483;28;19983;-69
2023/07/10 09:22:30;;;;;;;;;;;;;;;;;;5068229;28;19932;-72
2023/07/10 09:24:57;;;;;;;;;;;;;;;;;;5068222;28;19964;-70
2023/07/10 09:27:24;;;;;;;;;;;;;;;;;;5065724;28;19924;-69
2023/07/10 09:29:51;;;;;;;;;;;;;;;;;;5069067;28;19934;-69
2023/07/10 09:32:18;;;;;;;;;;;;;;;;;;5066334;28;19940;-70
2023/07/10 09:34:45;;;;;;;;;;;;;;;;;;5069343;28;20023;-70
2023/07/10 09:37:12;;;;;;;;;;;;;;;;;;5067994;28;19964;-70
2023/07/10 09:39:39;;;;;;;;;;;;;;;;;;5057377;28;20011;-68
2023/07/10 09:42:06;;;;;;;;;;;;;;;;;;5070057;28;20342;-70
2023/07/10 09:44:33;;;;;;;;;;;;;;;;;;5070713;28;20299;-68
2023/07/10 09:47:00;;;;;;;;;;;;;;;;;;5069169;28;19975;-69
2023/07/10 09:49:27;;;;;;;;;;;;;;;;;;5067790;28;20372;-68
2023/07/10 09:51:53;;;;;;;;;;;;;;;;;;5070508;28;20011;-69
2023/07/10 09:54:20;;;;;;;;;;;;;;;;;;5069805;28;20020;-69
2023/07/10 09:56:47;;;;;;;;;;;;;;;;;;5068518;28;19929;-69
2023/07/10 09:59:15;;;;;;;;;;;;;;;;;;5068981;28;20375;-69
2023/07/10 10:01:42;;;;;;;;;;;;;;;;;;5069899;28;19974;-69
2023/07/10 10:04:09;;;;;;;;;;;;;;;;;;5069753;28;19928;-69
2023/07/10 10:06:36;;;;;;;;;;;;;;;;;;5069992;28;19959;-69
2023/07/10 10:09:03;;;;;;;;;;;;;;;;;;5070289;28;20347;-69
2023/07/10 10:11:30;;;;;;;;;;;;;;;;;;5070480;28;19931;-69
2023/07/10 10:13:57;;;;;;;;;;;;;;;;;;5068860;28;20050;-69
2023/07/10 10:16:24;;;;;;;;;;;;;;;;;;5062054;28;19925;-69
2023/07/10 10:18:51;;;;;;;;;;;;;;;;;;5065782;28;19987;-69
2023/07/10 10:21:18;;;;;;;;;;;;;;;;;;5067439;28;20015;-69
2023/07/10 10:23:45;;;;;;;;;;;;;;;;;;5070551;28;19978;-69
2023/07/10 10:26:12;;;;;;;;;;;;;;;;;;5072299;28;19964;-69
2023/07/10 10:28:39;;;;;;;;;;;;;;;;;;5077171;28;20022;-69
2023/07/10 10:31:06;;;;;;;;;;;;;;;;;;5074008;28;19975;-69
2023/07/10 10:33:33;;;;;;;;;;;;;;;;;;5077797;28;19925;-69
2023/07/10 10:36:01;;;;;;;;;;;;;;;;;;5077216;28;19924;-70
2023/07/10 10:38:28;;;;;;;;;;;;;;;;;;5069735;28;19930;-69
2023/07/10 10:40:55;;;;;;;;;;;;;;;;;;5088268;28;20011;-69
2023/07/10 10:43:22;;;;;;;;;;;;;;;;;;5077210;28;20013;-69
2023/07/10 10:45:49;;;;;;;;;;;;;;;;;;5067917;28;19925;-69
2023/07/10 10:48:16;;;;;;;;;;;;;;;;;;5072744;28;19931;-69
2023/07/10 10:50:42;;;;;;;;;;;;;;;;;;5076566;28;19925;-68
2023/07/10 10:53:09;;;;;;;;;;;;;;;;;;5074552;28;20004;-69
2023/07/10 10:55:36;;;;;;;;;;;;;;;;;;5073215;28;19968;-68
2023/07/10 10:58:04;;;;;;;;;;;;;;;;;;5068791;28;19929;-69
2023/07/10 11:00:31;;;;;;;;;;;;;;;;;;5070285;28;19924;-69
2023/07/10 11:02:58;;;;;;;;;;;;;;;;;;5077547;28;19933;-68
2023/07/10 11:05:26;;;;;;;;;;;;;;;;;;5068880;28;19986;-69
2023/07/10 11:07:53;;;;;;;;;;;;;;;;;;5070090;28;19925;-68
2023/07/10 11:10:20;;;;;;;;;;;;;;;;;;5073655;28;19964;-68
2023/07/10 11:12:47;;;;;;;;;;;;;;;;;;5072919;28;19932;-69
2023/07/10 11:15:14;;;;;;;;;;;;;;;;;;5067857;28;19968;-68
2023/07/10 11:17:41;;;;;;;;;;;;;;;;;;5075107;28;20008;-68
2023/07/10 11:20:08;;;;;;;;;;;;;;;;;;5074656;28;19962;-68
2023/07/10 11:22:36;;;;;;;;;;;;;;;;;;5072049;28;19925;-69
2023/07/10 11:25:03;;;;;;;;;;;;;;;;;;5078460;28;20356;-68
2023/07/10 11:27:30;;;;;;;;;;;;;;;;;;5076431;28;20384;-70
2023/07/10 11:29:57;;;;;;;;;;;;;;;;;;5077578;28;20022;-67
2023/07/10 11:32:24;;;;;;;;;;;;;;;;;;5070663;28;19989;-68
2023/07/10 11:34:51;;;;;;;;;;;;;;;;;;5062039;28;19931;-68
2023/07/10 11:37:18;;;;;;;;;;;;;;;;;;5073286;28;20019;-68
2023/07/10 11:39:45;;;;;;;;;;;;;;;;;;5071544;28;19928;-68
2023/07/10 11:42:12;;;;;;;;;;;;;;;;;;5070460;28;20003;-68
2023/07/10 11:44:40;;;;;;;;;;;;;;;;;;5070285;28;19975;-68
2023/07/10 11:47:07;;;;;;;;;;;;;;;;;;5065141;28;19935;-68
2023/07/10 11:49:34;;;;;;;;;;;;;;;;;;5072002;28;20502;-69
2023/07/10 11:52:01;;;;;;;;;;;;;;;;;;5069170;28;20028;-69
2023/07/10 11:54:28;;;;;;;;;;;;;;;;;;5071476;28;19931;-69
2023/07/10 11:56:55;;;;;;;;;;;;;;;;;;5069037;28;20336;-70
2023/07/10 11:59:22;;;;;;;;;;;;;;;;;;5063825;28;20106;-70
2023/07/10 12:01:49;;;;;;;;;;;;;;;;;;5066228;28;19935;-69
2023/07/10 12:04:18;;;;;;;;;;;;;;;;;;5071663;28;19928;-70
2023/07/10 12:06:45;;;;;;;;;;;;;;;;;;5065700;28;19943;-69
2023/07/10 12:09:12;;;;;;;;;;;;;;;;;;5071647;28;20423;-69
2023/07/10 12:11:39;;;;;;;;;;;;;;;;;;5071736;28;19960;-69
2023/07/10 12:14:06;;;;;;;;;;;;;;;;;;5071996;28;19956;-70
2023/07/10 12:16:33;;;;;;;;;;;;;;;;;;5072406;28;19932;-69
2023/07/10 12:18:59;;;;;;;;;;;;;;;;;;5066300;28;20341;-69
2023/07/10 12:21:26;;;;;;;;;;;;;;;;;;5069292;28;19928;-69
2023/07/10 12:23:53;;;;;;;;;;;;;;;;;;5069684;28;19951;-69
2023/07/10 12:26:20;;;;;;;;;;;;;;;;;;5070507;28;20357;-69
2023/07/10 12:28:47;;;;;;;;;;;;;;;;;;5068349;28;20028;-69
2023/07/10 12:31:14;;;;;;;;;;;;;;;;;;5067582;28;19924;-69
2023/07/10 12:33:41;;;;;;;;;;;;;;;;;;5073046;28;19962;-69
2023/07/10 12:36:08;;;;;;;;;;;;;;;;;;5052875;28;19971;-69
2023/07/10 12:38:35;;;;;;;;;;;;;;;;;;5065714;28;19925;-69
2023/07/10 12:41:02;;;;;;;;;;;;;;;;;;5071000;28;20039;-69
2023/07/10 12:43:29;;;;;;;;;;;;;;;;;;5073542;28;20011;-69
2023/07/10 12:45:56;;;;;;;;;;;;;;;;;;5069044;28;20023;-69
2023/07/10 12:48:23;;;;;;;;;;;;;;;;;;5069945;28;19934;-69
2023/07/10 12:50:50;;;;;;;;;;;;;;;;;;5070473;28;19924;-69
2023/07/10 12:53:17;;;;;;;;;;;;;;;;;;5068359;28;20015;-70
2023/07/10 12:55:44;;;;;;;;;;;;;;;;;;5068093;28;20019;-70
2023/07/10 12:58:11;;;;;;;;;;;;;;;;;;5067338;28;20118;-70
2023/07/10 13:00:38;;;;;;;;;;;;;;;;;;5071148;28;19967;-70
2023/07/10 13:03:05;;;;;;;;;;;;;;;;;;5067373;28;19960;-69
2023/07/10 13:05:34;;;;;;;;;;;;;;;;;;5070392;28;19951;-69
2023/07/10 13:08:01;;;;;;;;;;;;;;;;;;5072685;28;19943;-72
2023/07/10 13:10:28;;;;;;;;;;;;;;;;;;5070793;28;20059;-70
2023/07/10 13:12:55;;;;;;;;;;;;;;;;;;5068307;28;20279;-69
2023/07/10 13:15:22;;;;;;;;;;;;;;;;;;5072015;28;20371;-70
2023/07/10 13:17:49;;;;;;;;;;;;;;;;;;5070181;28;20351;-70
2023/07/10 13:20:16;;;;;;;;;;;;;;;;;;5065074;28;19925;-70
2023/07/10 13:22:43;;;;;;;;;;;;;;;;;;5069365;28;19931;-70
2023/07/10 13:25:10;;;;;;;;;;;;;;;;;;5070801;28;19931;-71
2023/07/10 13:27:37;;;;;;;;;;;;;;;;;;5071717;28;19988;-71
2023/07/10 13:30:04;;;;;;;;;;;;;;;;;;5070821;28;20622;-70
2023/07/10 13:32:31;;;;;;;;;;;;;;;;;;5070063;28;20035;-70
2023/07/10 13:34:58;;;;;;;;;;;;;;;;;;5070371;28;20024;-71
2023/07/10 13:37:25;;;;;;;;;;;;;;;;;;5069724;28;20349;-71
2023/07/10 13:39:52;;;;;;;;;;;;;;;;;;5064241;28;20011;-70
2023/07/10 13:42:19;;;;;;;;;;;;;;;;;;5053208;28;19972;-70
2023/07/10 13:44:46;;;;;;;;;;;;;;;;;;5072005;28;19979;-71
2023/07/10 13:47:13;;;;;;;;;;;;;;;;;;5082907;28;19924;-71
2023/07/10 13:49:40;;;;;;;;;;;;;;;;;;5066203;28;20003;-70
2023/07/10 13:52:07;;;;;;;;;;;;;;;;;;5072120;28;20007;-70
2023/07/10 13:54:34;;;;;;;;;;;;;;;;;;5063827;28;19929;-71
2023/07/10 13:57:01;;;;;;;;;;;;;;;;;;5052027;28;20455;-70
2023/07/10 13:59:28;;;;;;;;;;;;;;;;;;5065032;28;19925;-70
2023/07/10 14:01:55;;;;;;;;;;;;;;;;;;5070628;28;20023;-70
2023/07/10 14:04:22;;;;;;;;;;;;;;;;;;5071362;28;19929;-71
2023/07/10 14:06:49;;;;;;;;;;;;;;;;;;5059364;28;19967;-70
2023/07/10 14:09:16;;;;;;;;;;;;;;;;;;5062078;28;19970;-70
2023/07/10 14:11:43;;;;;;;;;;;;;;;;;;5063739;28;20019;-70
2023/07/10 14:14:10;;;;;;;;;;;;;;;;;;5063696;28;19932;-70
2023/07/10 14:16:37;;;;;;;;;;;;;;;;;;5067597;28;20442;-70
2023/07/10 14:19:03;;;;;;;;;;;;;;;;;;5063801;28;19963;-70
2023/07/10 14:21:30;;;;;;;;;;;;;;;;;;5063003;28;20012;-71
2023/07/10 14:23:58;;;;;;;;;;;;;;;;;;5068364;28;19931;-70
2023/07/10 14:26:25;;;;;;;;;;;;;;;;;;5058935;28;19928;-70
2023/07/10 14:28:52;;;;;;;;;;;;;;;;;;5069789;28;19929;-70
2023/07/10 14:31:19;;;;;;;;;;;;;;;;;;5067576;28;19928;-70
2023/07/10 14:33:46;;;;;;;;;;;;;;;;;;5075303;28;20614;-70
2023/07/10 14:36:13;;;;;;;;;;;;;;;;;;5067001;28;19968;-70
2023/07/10 14:38:40;;;;;;;;;;;;;;;;;;5065651;28;20003;-70
2023/07/10 14:41:07;;;;;;;;;;;;;;;;;;5069096;28;20011;-70
2023/07/10 14:43:34;;;;;;;;;;;;;;;;;;5068806;28;20019;-70
2023/07/10 14:46:01;;;;;;;;;;;;;;;;;;5062507;28;19925;-70
2023/07/10 14:48:28;;;;;;;;;;;;;;;;;;5069720;28;20093;-71
2023/07/10 14:50:55;;;;;;;;;;;;;;;;;;5069183;28;19924;-72
2023/07/10 14:53:22;;;;;;;;;;;;;;;;;;5052825;28;20023;-69
2023/07/10 14:55:49;;;;;;;;;;;;;;;;;;5060627;28;19924;-72
2023/07/10 14:58:16;;;;;;;;;;;;;;;;;;5064939;28;19932;-69
2023/07/10 15:00:43;;;;;;;;;;;;;;;;;;5065718;28;19924;-69
2023/07/10 15:03:10;;;;;;;;;;;;;;;;;;5066650;28;20394;-69
2023/07/10 15:05:37;;;;;;;;;;;;;;;;;;5069323;28;19986;-70
2023/07/10 15:08:04;;;;;;;;;;;;;;;;;;5064785;28;19977;-70
2023/07/10 15:10:31;;;;;;;;;;;;;;;;;;5067332;28;20007;-69
2023/07/10 15:13:00;;;;;;;;;;;;;;;;;;5073406;28;20414;-70
2023/07/10 15:15:27;;;;;;;;;;;;;;;;;;5060064;28;19924;-70
2023/07/10 15:17:53;;;;;;;;;;;;;;;;;;5068886;28;20015;-70
2023/07/10 15:20:21;;;;;;;;;;;;;;;;;;5061793;28;19951;-70
2023/07/10 15:22:48;;;;;;;;;;;;;;;;;;5057226;28;20015;-69
2023/07/10 15:25:15;;;;;;;;;;;;;;;;;;5069139;28;20016;-71
2023/07/10 15:27:42;;;;;;;;;;;;;;;;;;5068477;28;19924;-70
2023/07/10 15:30:09;;;;;;;;;;;;;;;;;;5076734;28;19924;-71
2023/07/10 15:32:36;;;;;;;;;;;;;;;;;;5072598;28;20367;-71
2023/07/10 15:35:03;;;;;;;;;;;;;;;;;;5073461;28;20019;-72
2023/07/10 15:37:31;;;;;;;;;;;;;;;;;;5074644;28;19924;-72
2023/07/10 15:39:58;;;;;;;;;;;;;;;;;;5071966;28;20442;-71
2023/07/10 15:42:25;;;;;;;;;;;;;;;;;;5072196;28;19932;-70
2023/07/10 15:44:52;;;;;;;;;;;;;;;;;;5076003;28;21046;-72
2023/07/10 15:47:19;;;;;;;;;;;;;;;;;;5070485;28;19932;-72
2023/07/10 15:49:46;;;;;;;;;;;;;;;;;;5072203;28;19982;-72
2023/07/10 15:52:13;;;;;;;;;;;;;;;;;;5072883;28;20448;-72
2023/07/10 15:54:40;;;;;;;;;;;;;;;;;;5071551;28;19925;-68
2023/07/10 15:57:07;;;;;;;;;;;;;;;;;;5074038;28;20055;-68
2023/07/10 15:59:34;;;;;;;;;;;;;;;;;;5071675;28;20008;-70
2023/07/10 16:02:02;;;;;;;;;;;;;;;;;;5076912;28;20367;-70
2023/07/10 16:04:29;;;;;;;;;;;;;;;;;;5073559;28;20008;-71
2023/07/10 16:06:56;;;;;;;;;;;;;;;;;;5071807;28;20446;-70
2023/07/10 16:09:23;;;;;;;;;;;;;;;;;;5064033;28;20358;-70
2023/07/10 16:11:50;;;;;;;;;;;;;;;;;;5069356;28;19968;-70
2023/07/10 16:14:17;;;;;;;;;;;;;;;;;;5068474;28;20020;-71
2023/07/10 16:16:44;;;;;;;;;;;;;;;;;;5070582;28;19976;-71
2023/07/10 16:19:11;;;;;;;;;;;;;;;;;;5074115;28;19924;-69
2023/07/10 16:21:38;;;;;;;;;;;;;;;;;;5070853;28;20016;-70
2023/07/10 16:24:05;;;;;;;;;;;;;;;;;;5073247;28;20024;-70
2023/07/10 16:26:32;;;;;;;;;;;;;;;;;;5072628;28;20054;-71
2023/07/10 16:28:59;;;;;;;;;;;;;;;;;;5068324;28;20007;-71
2023/07/10 16:31:26;;;;;;;;;;;;;;;;;;5071143;28;20347;-71
2023/07/10 16:33:53;;;;;;;;;;;;;;;;;;5069243;28;20023;-71
2023/07/10 16:36:20;;;;;;;;;;;;;;;;;;5073007;28;19931;-71
2023/07/10 16:38:47;;;;;;;;;;;;;;;;;;5082014;28;19947;-71
2023/07/10 16:41:14;;;;;;;;;;;;;;;;;;5069953;28;20019;-71
2023/07/10 16:43:41;;;;;;;;;;;;;;;;;;5067350;28;19924;-71